createdAt,value
2017-10-03T00:00:06.585Z,0
2017-10-03T00:01:06.920Z,0
2017-10-03T00:02:21.534Z,0
2017-10-03T00:03:21.243Z,0
2017-10-03T00:04:06.984Z,0
2017-10-03T00:05:06.692Z,0
2017-10-03T00:06:07.032Z,0
2017-10-03T00:07:06.735Z,0
2017-10-03T00:08:21.669Z,0
2017-10-03T00:09:21.368Z,0
2017-10-03T00:10:06.803Z,0
2017-10-03T00:11:06.820Z,0
2017-10-03T00:12:07.159Z,0
2017-10-03T00:13:07.199Z,0
2017-10-03T00:14:06.888Z,0
2017-10-03T00:15:06.912Z,0
2017-10-03T00:16:06.618Z,0
2017-10-03T00:17:21.869Z,0
2017-10-03T00:18:06.660Z,0
2017-10-03T00:19:07.315Z,0
2017-10-03T00:20:07.392Z,0
2017-10-03T00:21:06.729Z,0
2017-10-03T00:22:07.071Z,0
2017-10-03T00:23:21.681Z,0
2017-10-03T00:24:07.108Z,0
2017-10-03T00:25:07.452Z,0
2017-10-03T00:26:07.479Z,0
2017-10-03T00:27:07.497Z,0
2017-10-03T00:28:07.518Z,0
2017-10-03T00:29:07.535Z,0
2017-10-03T00:30:07.565Z,0
2017-10-03T00:33:07.629Z,0
2017-10-03T00:35:07.361Z,0
2017-10-03T00:36:21.968Z,0
2017-10-03T00:37:07.713Z,0
2017-10-03T00:38:22.005Z,0
2017-10-03T00:39:07.441Z,0
2017-10-03T00:40:21.732Z,0
2017-10-03T00:41:07.481Z,0
2017-10-03T00:42:07.505Z,0
2017-10-03T00:43:07.843Z,0
2017-10-03T00:45:07.895Z,0
2017-10-03T00:46:07.941Z,0
2017-10-03T00:47:07.615Z,0
2017-10-03T00:48:07.953Z,0
2017-10-03T00:49:07.972Z,0
2017-10-03T00:50:22.592Z,0
2017-10-03T00:52:07.730Z,0
2017-10-03T00:53:22.656Z,0
2017-10-03T00:54:08.079Z,0
2017-10-03T00:55:22.380Z,0
2017-10-03T00:56:08.127Z,0
2017-10-03T00:58:07.854Z,0
2017-10-03T00:59:07.880Z,0
2017-10-03T01:00:07.902Z,0
2017-10-03T01:01:08.240Z,0
2017-10-03T01:02:07.626Z,0
2017-10-03T01:03:07.974Z,0
2017-10-03T01:04:08.305Z,0
2017-10-03T01:05:08.327Z,0
2017-10-03T01:06:37.530Z,0
2017-10-03T01:07:07.734Z,0
2017-10-03T01:08:08.389Z,0
2017-10-03T01:09:23.004Z,0
2017-10-03T01:10:23.028Z,0
2017-10-03T01:12:08.159Z,0
2017-10-03T01:13:08.182Z,0
2017-10-03T01:14:08.539Z,0
2017-10-03T01:15:08.234Z,0
2017-10-03T01:16:08.567Z,0
2017-10-03T01:17:08.598Z,0
2017-10-03T01:18:08.610Z,0
2017-10-03T01:19:08.349Z,0
2017-10-03T01:20:08.386Z,0
2017-10-03T01:21:08.355Z,0
2017-10-03T01:22:22.970Z,0
2017-10-03T01:23:08.719Z,0
2017-10-03T01:25:08.446Z,0
2017-10-03T01:26:08.467Z,0
2017-10-03T01:27:23.399Z,0
2017-10-03T01:28:08.853Z,0
2017-10-03T01:30:08.238Z,0
2017-10-03T01:31:08.257Z,0
2017-10-03T01:32:08.606Z,0
2017-10-03T01:35:08.985Z,0
2017-10-03T01:36:08.362Z,0
2017-10-03T01:38:08.728Z,0
2017-10-03T01:39:09.068Z,0
2017-10-03T01:40:23.687Z,0
2017-10-03T01:41:08.482Z,0
2017-10-03T01:42:08.498Z,0
2017-10-03T01:43:09.160Z,0
2017-10-03T01:45:09.205Z,0
2017-10-03T01:47:09.259Z,0
2017-10-03T01:48:09.279Z,0
2017-10-03T01:49:09.288Z,0
2017-10-03T01:50:09.004Z,0
2017-10-03T01:51:09.009Z,0
2017-10-03T01:52:09.383Z,0
2017-10-03T01:53:09.372Z,0
2017-10-03T01:54:09.074Z,0
2017-10-03T01:55:24.058Z,0
2017-10-03T01:56:24.032Z,0
2017-10-03T01:57:09.461Z,0
2017-10-03T01:58:09.503Z,0
2017-10-03T01:59:24.094Z,0
2017-10-03T02:00:09.532Z,0
2017-10-03T02:01:09.227Z,0
2017-10-03T02:02:09.248Z,0
2017-10-03T02:03:09.272Z,0
2017-10-03T02:04:09.290Z,0
2017-10-03T02:05:09.311Z,0
2017-10-03T02:06:09.650Z,0
2017-10-03T02:07:09.682Z,0
2017-10-03T02:08:09.696Z,0
2017-10-03T02:09:38.911Z,0
2017-10-03T02:10:09.423Z,0
2017-10-03T02:11:24.035Z,0
2017-10-03T02:12:09.787Z,0
2017-10-03T02:14:09.835Z,0
2017-10-03T02:15:09.530Z,0
2017-10-03T02:16:09.869Z,0
2017-10-03T02:17:09.573Z,0
2017-10-03T02:18:09.913Z,0
2017-10-03T02:19:09.933Z,0
2017-10-03T02:20:09.637Z,0
2017-10-03T02:21:09.659Z,0
2017-10-03T02:22:09.680Z,0
2017-10-03T02:23:09.381Z,0
2017-10-03T02:24:09.733Z,0
2017-10-03T02:25:24.385Z,0
2017-10-03T02:26:09.449Z,0
2017-10-03T02:27:09.785Z,0
2017-10-03T02:28:09.807Z,0
2017-10-03T02:29:24.738Z,0
2017-10-03T02:30:09.853Z,0
2017-10-03T02:31:10.195Z,0
2017-10-03T02:32:09.901Z,0
2017-10-03T02:33:10.236Z,0
2017-10-03T02:34:09.943Z,0
2017-10-03T02:35:09.961Z,0
2017-10-03T02:36:10.299Z,0
2017-10-03T02:37:09.686Z,0
2017-10-03T02:38:10.024Z,0
2017-10-03T02:39:10.398Z,0
2017-10-03T02:40:09.804Z,0
2017-10-03T02:41:24.680Z,0
2017-10-03T02:42:10.114Z,0
2017-10-03T02:43:24.727Z,0
2017-10-03T02:44:10.151Z,0
2017-10-03T02:45:10.498Z,0
2017-10-03T02:46:09.890Z,0
2017-10-03T02:47:10.541Z,0
2017-10-03T02:48:10.569Z,0
2017-10-03T02:49:10.587Z,0
2017-10-03T02:50:09.967Z,0
2017-10-03T02:52:10.016Z,0
2017-10-03T02:53:10.671Z,0
2017-10-03T02:54:10.703Z,0
2017-10-03T02:55:10.398Z,0
2017-10-03T02:57:25.345Z,0
2017-10-03T02:58:10.487Z,0
2017-10-03T02:59:10.793Z,0
2017-10-03T03:00:10.182Z,0
2017-10-03T03:01:25.431Z,0
2017-10-03T03:02:10.855Z,0
2017-10-03T03:03:10.883Z,0
2017-10-03T03:04:10.607Z,0
2017-10-03T03:05:25.517Z,0
2017-10-03T03:06:10.643Z,0
2017-10-03T03:07:10.650Z,0
2017-10-03T03:08:10.998Z,0
2017-10-03T03:09:10.690Z,0
2017-10-03T03:10:11.039Z,0
2017-10-03T03:11:11.056Z,0
2017-10-03T03:12:25.352Z,0
2017-10-03T03:13:11.094Z,0
2017-10-03T03:14:25.716Z,0
2017-10-03T03:15:11.144Z,0
2017-10-03T03:16:11.169Z,0
2017-10-03T03:17:25.782Z,0
2017-10-03T03:18:10.880Z,0
2017-10-03T03:19:10.911Z,0
2017-10-03T03:20:10.614Z,0
2017-10-03T03:21:10.634Z,0
2017-10-03T03:22:10.972Z,0
2017-10-03T03:23:10.998Z,0
2017-10-03T03:24:11.021Z,0
2017-10-03T03:25:11.036Z,0
2017-10-03T03:27:11.398Z,0
2017-10-03T03:28:11.430Z,0
2017-10-03T03:29:11.132Z,0
2017-10-03T03:30:11.155Z,0
2017-10-03T03:31:11.494Z,0
2017-10-03T03:32:11.505Z,0
2017-10-03T03:33:11.213Z,0
2017-10-03T03:34:11.553Z,0
2017-10-03T03:35:10.936Z,0
2017-10-03T03:36:10.956Z,0
2017-10-03T03:37:10.979Z,0
2017-10-03T03:38:11.685Z,0
2017-10-03T03:39:11.023Z,0
2017-10-03T03:40:11.364Z,0
2017-10-03T03:41:11.384Z,0
2017-10-03T03:43:11.477Z,0
2017-10-03T03:44:26.356Z,0
2017-10-03T03:45:26.378Z,0
2017-10-03T03:46:26.085Z,0
2017-10-03T03:47:26.421Z,0
2017-10-03T03:48:26.127Z,0
2017-10-03T03:49:11.876Z,0
2017-10-03T03:50:26.172Z,0
2017-10-03T03:51:11.657Z,0
2017-10-03T03:52:11.938Z,0
2017-10-03T03:53:11.006Z,0
2017-10-03T03:55:11.366Z,0
2017-10-03T03:56:11.071Z,0
2017-10-03T03:57:12.047Z,0
2017-10-03T03:58:11.115Z,0
2017-10-03T03:59:12.093Z,0
2017-10-03T04:00:26.706Z,0
2017-10-03T04:01:11.818Z,0
2017-10-03T04:02:26.752Z,0
2017-10-03T04:03:12.176Z,0
2017-10-03T04:04:12.203Z,0
2017-10-03T04:05:12.215Z,0
2017-10-03T04:06:12.240Z,0
2017-10-03T04:07:12.265Z,0
2017-10-03T04:08:12.285Z,0
2017-10-03T04:09:12.316Z,0
2017-10-03T04:10:12.006Z,0
2017-10-03T04:11:12.030Z,0
2017-10-03T04:12:12.056Z,0
2017-10-03T04:13:12.072Z,0
2017-10-03T04:14:11.777Z,0
2017-10-03T04:15:26.711Z,0
2017-10-03T04:16:27.046Z,0
2017-10-03T04:17:12.158Z,0
2017-10-03T04:18:12.498Z,0
2017-10-03T04:19:12.197Z,0
2017-10-03T04:20:26.811Z,0
2017-10-03T04:21:12.242Z,0
2017-10-03T04:23:12.610Z,0
2017-10-03T04:24:12.619Z,0
2017-10-03T04:25:12.653Z,0
2017-10-03T04:26:12.033Z,0
2017-10-03T04:27:12.370Z,0
2017-10-03T04:28:12.711Z,0
2017-10-03T04:29:12.742Z,0
2017-10-03T04:30:26.393Z,0
2017-10-03T04:31:12.801Z,0
2017-10-03T04:32:27.068Z,0
2017-10-03T04:33:12.824Z,0
2017-10-03T04:34:12.838Z,0
2017-10-03T04:35:12.862Z,0
2017-10-03T04:36:12.564Z,0
2017-10-03T04:37:27.180Z,0
2017-10-03T04:38:12.924Z,0
2017-10-03T04:40:12.331Z,0
2017-10-03T04:41:12.353Z,0
2017-10-03T04:42:13.037Z,0
2017-10-03T04:43:13.034Z,0
2017-10-03T04:44:13.053Z,0
2017-10-03T04:45:12.454Z,0
2017-10-03T04:46:12.462Z,0
2017-10-03T04:47:27.074Z,0
2017-10-03T04:48:27.417Z,0
2017-10-03T04:49:13.165Z,0
2017-10-03T04:50:27.776Z,0
2017-10-03T04:52:13.231Z,0
2017-10-03T04:53:13.243Z,0
2017-10-03T04:54:13.272Z,0
2017-10-03T04:56:12.993Z,0
2017-10-03T04:57:13.338Z,0
2017-10-03T04:58:13.356Z,0
2017-10-03T04:59:13.378Z,0
2017-10-03T05:00:13.398Z,0
2017-10-03T05:01:13.422Z,0
2017-10-03T05:02:13.116Z,0
2017-10-03T05:03:13.461Z,0
2017-10-03T05:04:13.162Z,0
2017-10-03T05:05:27.779Z,0
2017-10-03T05:06:13.524Z,0
2017-10-03T05:07:13.231Z,0
2017-10-03T05:08:13.571Z,0
2017-10-03T05:09:13.267Z,0
2017-10-03T05:10:13.298Z,0
2017-10-03T05:12:13.332Z,0
2017-10-03T05:13:13.355Z,0
2017-10-03T05:14:13.380Z,0
2017-10-03T05:15:13.718Z,0
2017-10-03T05:17:13.443Z,0
2017-10-03T05:18:13.474Z,0
2017-10-03T05:19:27.755Z,0
2017-10-03T05:20:28.422Z,0
2017-10-03T05:21:28.120Z,0
2017-10-03T05:22:13.873Z,0
2017-10-03T05:23:13.569Z,0
2017-10-03T05:24:28.280Z,0
2017-10-03T05:25:13.298Z,0
2017-10-03T05:26:13.640Z,0
2017-10-03T05:27:13.338Z,0
2017-10-03T05:28:13.679Z,0
2017-10-03T05:29:13.379Z,0
2017-10-03T05:30:13.727Z,0
2017-10-03T05:31:13.427Z,5
2017-10-03T05:32:13.447Z,5
2017-10-03T05:33:14.102Z,5
2017-10-03T05:35:28.740Z,5
2017-10-03T05:36:13.535Z,5
2017-10-03T05:37:14.187Z,5
2017-10-03T05:38:28.803Z,5
2017-10-03T05:39:13.603Z,5
2017-10-03T05:40:13.933Z,5
2017-10-03T05:41:14.285Z,5
2017-10-03T05:42:14.027Z,5
2017-10-03T05:43:13.683Z,5
2017-10-03T05:45:13.722Z,5
2017-10-03T05:46:14.063Z,5
2017-10-03T05:47:14.092Z,5
2017-10-03T05:50:14.477Z,10
2017-10-03T05:51:28.772Z,10
2017-10-03T05:52:14.203Z,10
2017-10-03T05:53:14.213Z,15
2017-10-03T05:54:14.560Z,15
2017-10-03T05:55:14.258Z,20
2017-10-03T05:56:14.278Z,20
2017-10-03T05:57:14.301Z,20
2017-10-03T05:58:14.004Z,20
2017-10-03T05:59:14.365Z,20
2017-10-03T06:01:14.711Z,25
2017-10-03T06:02:14.406Z,25
2017-10-03T06:03:14.748Z,20
2017-10-03T06:04:14.775Z,20
2017-10-03T06:05:14.789Z,20
2017-10-03T06:06:29.409Z,25
2017-10-03T06:07:29.427Z,25
2017-10-03T06:08:14.543Z,30
2017-10-03T06:09:29.474Z,35
2017-10-03T06:10:14.947Z,35
2017-10-03T06:11:14.925Z,30
2017-10-03T06:12:14.624Z,25
2017-10-03T06:13:14.964Z,20
2017-10-03T06:14:14.986Z,20
2017-10-03T06:15:15.014Z,20
2017-10-03T06:16:14.714Z,20
2017-10-03T06:17:14.733Z,25
2017-10-03T06:18:15.069Z,30
2017-10-03T06:19:15.097Z,35
2017-10-03T06:20:14.842Z,30
2017-10-03T06:21:15.137Z,30
2017-10-03T06:22:29.429Z,40
2017-10-03T06:23:15.178Z,40
2017-10-03T06:24:15.200Z,40
2017-10-03T06:25:29.813Z,45
2017-10-03T06:26:15.245Z,45
2017-10-03T06:27:15.265Z,45
2017-10-03T06:28:14.974Z,45
2017-10-03T06:29:15.315Z,40
2017-10-03T06:30:15.328Z,45
2017-10-03T06:31:15.360Z,45
2017-10-03T06:32:15.053Z,45
2017-10-03T06:33:15.395Z,45
2017-10-03T06:34:15.423Z,45
2017-10-03T06:35:15.121Z,45
2017-10-03T06:36:14.827Z,50
2017-10-03T06:39:15.532Z,55
2017-10-03T06:40:14.912Z,65
2017-10-03T06:41:15.570Z,75
2017-10-03T06:42:15.589Z,75
2017-10-03T06:44:14.685Z,60
2017-10-03T06:45:15.338Z,60
2017-10-03T06:46:15.364Z,65
2017-10-03T06:47:15.704Z,70
2017-10-03T06:48:30.317Z,60
2017-10-03T06:49:14.791Z,55
2017-10-03T06:50:15.767Z,55
2017-10-03T06:51:15.845Z,65
2017-10-03T06:52:15.175Z,65
2017-10-03T06:53:15.512Z,60
2017-10-03T06:54:30.129Z,55
2017-10-03T06:55:15.568Z,45
2017-10-03T06:56:30.173Z,50
2017-10-03T06:57:30.246Z,125
2017-10-03T06:58:15.621Z,60
2017-10-03T06:59:30.568Z,85
2017-10-03T07:00:15.666Z,100
2017-10-03T07:01:16.050Z,60
2017-10-03T07:02:15.714Z,85
2017-10-03T07:03:15.735Z,55
2017-10-03T07:04:15.441Z,55
2017-10-03T07:05:15.459Z,60
2017-10-03T07:06:15.798Z,55
2017-10-03T07:07:15.505Z,60
2017-10-03T07:08:15.847Z,55
2017-10-03T07:09:16.190Z,50
2017-10-03T07:10:30.802Z,45
2017-10-03T07:11:16.227Z,55
2017-10-03T07:12:30.529Z,65
2017-10-03T07:13:16.275Z,85
2017-10-03T07:14:30.250Z,95
2017-10-03T07:15:15.997Z,90
2017-10-03T07:16:16.023Z,65
2017-10-03T07:17:16.042Z,80
2017-10-03T07:18:16.068Z,120
2017-10-03T07:19:16.410Z,105
2017-10-03T07:20:16.107Z,110
2017-10-03T07:21:15.821Z,85
2017-10-03T07:23:16.174Z,160
2017-10-03T07:24:30.797Z,120
2017-10-03T07:25:16.225Z,100
2017-10-03T07:26:31.155Z,85
2017-10-03T07:28:16.291Z,75
2017-10-03T07:29:16.323Z,90
2017-10-03T07:30:16.338Z,75
2017-10-03T07:31:30.947Z,70
2017-10-03T07:32:30.971Z,60
2017-10-03T07:33:31.305Z,65
2017-10-03T07:34:16.752Z,70
2017-10-03T07:35:31.353Z,75
2017-10-03T07:36:16.788Z,85
2017-10-03T07:37:16.509Z,50
2017-10-03T07:38:16.193Z,45
2017-10-03T07:39:16.851Z,50
2017-10-03T07:40:16.556Z,75
2017-10-03T07:41:16.580Z,60
2017-10-03T07:42:31.517Z,70
2017-10-03T07:43:16.306Z,60
2017-10-03T07:44:16.332Z,60
2017-10-03T07:46:16.380Z,60
2017-10-03T07:47:16.396Z,100
2017-10-03T07:48:17.061Z,110
2017-10-03T07:49:16.754Z,95
2017-10-03T07:50:16.779Z,90
2017-10-03T07:51:17.122Z,90
2017-10-03T07:52:16.507Z,100
2017-10-03T07:53:17.166Z,115
2017-10-03T07:54:16.875Z,110
2017-10-03T07:55:16.581Z,110
2017-10-03T07:56:16.915Z,100
2017-10-03T07:57:31.847Z,120
2017-10-03T07:59:17.299Z,155
2017-10-03T08:00:17.329Z,185
2017-10-03T08:01:17.035Z,135
2017-10-03T08:02:17.368Z,80
2017-10-03T08:03:17.397Z,110
2017-10-03T08:04:17.411Z,75
2017-10-03T08:05:17.443Z,60
2017-10-03T08:06:17.142Z,55
2017-10-03T08:07:17.488Z,60
2017-10-03T08:09:17.528Z,55
2017-10-03T08:10:17.234Z,55
2017-10-03T08:11:16.618Z,110
2017-10-03T08:12:17.277Z,90
2017-10-03T08:13:17.301Z,70
2017-10-03T08:14:17.323Z,90
2017-10-03T08:15:17.080Z,65
2017-10-03T08:16:17.059Z,50
2017-10-03T08:17:17.390Z,50
2017-10-03T08:18:17.426Z,65
2017-10-03T08:20:32.052Z,55
2017-10-03T08:21:17.483Z,50
2017-10-03T08:22:17.185Z,50
2017-10-03T08:23:17.843Z,65
2017-10-03T08:24:17.873Z,90
2017-10-03T08:25:17.888Z,90
2017-10-03T08:26:17.913Z,75
2017-10-03T08:27:17.303Z,75
2017-10-03T08:28:17.956Z,85
2017-10-03T08:29:32.574Z,100
2017-10-03T08:30:18.000Z,115
2017-10-03T08:31:32.618Z,90
2017-10-03T08:32:32.325Z,85
2017-10-03T08:33:18.073Z,130
2017-10-03T08:34:18.103Z,145
2017-10-03T08:35:32.711Z,140
2017-10-03T08:36:32.410Z,150
2017-10-03T08:37:17.842Z,105
2017-10-03T08:38:17.888Z,105
2017-10-03T08:39:32.799Z,160
2017-10-03T08:40:17.913Z,160
2017-10-03T08:41:18.251Z,180
2017-10-03T08:42:18.283Z,155
2017-10-03T08:43:17.980Z,155
2017-10-03T08:44:17.688Z,180
2017-10-03T08:45:32.625Z,210
2017-10-03T08:46:18.044Z,205
2017-10-03T08:47:18.390Z,195
2017-10-03T08:48:33.030Z,145
2017-10-03T08:49:33.029Z,115
2017-10-03T08:50:18.138Z,105
2017-10-03T08:51:18.483Z,100
2017-10-03T08:52:18.216Z,130
2017-10-03T08:53:18.211Z,105
2017-10-03T08:54:18.238Z,105
2017-10-03T08:55:18.257Z,135
2017-10-03T08:56:18.283Z,100
2017-10-03T08:57:18.311Z,85
2017-10-03T08:58:18.641Z,80
2017-10-03T08:59:18.665Z,100
2017-10-03T09:00:18.374Z,130
2017-10-03T09:01:33.315Z,125
2017-10-03T09:03:18.443Z,130
2017-10-03T09:04:18.777Z,140
2017-10-03T09:05:33.397Z,120
2017-10-03T09:06:18.828Z,105
2017-10-03T09:07:18.544Z,100
2017-10-03T09:08:18.570Z,105
2017-10-03T09:09:18.260Z,120
2017-10-03T09:10:33.513Z,125
2017-10-03T09:11:18.944Z,100
2017-10-03T09:12:18.967Z,90
2017-10-03T09:13:18.994Z,120
2017-10-03T09:14:18.691Z,125
2017-10-03T09:15:18.399Z,125
2017-10-03T09:17:33.358Z,145
2017-10-03T09:18:18.790Z,145
2017-10-03T09:19:19.181Z,135
2017-10-03T09:20:18.833Z,120
2017-10-03T09:21:33.771Z,110
2017-10-03T09:22:33.793Z,105
2017-10-03T09:23:18.902Z,110
2017-10-03T09:24:19.240Z,125
2017-10-03T09:25:19.277Z,125
2017-10-03T09:26:19.021Z,125
2017-10-03T09:27:18.999Z,140
2017-10-03T09:28:19.339Z,205
2017-10-03T09:29:19.044Z,205
2017-10-03T09:30:19.384Z,185
2017-10-03T09:31:19.411Z,180
2017-10-03T09:32:34.027Z,165
2017-10-03T09:33:19.140Z,160
2017-10-03T09:35:19.185Z,135
2017-10-03T09:36:34.116Z,125
2017-10-03T09:37:34.176Z,125
2017-10-03T09:38:18.303Z,110
2017-10-03T09:39:33.870Z,105
2017-10-03T09:40:18.986Z,115
2017-10-03T09:41:34.235Z,145
2017-10-03T09:42:19.351Z,175
2017-10-03T09:43:19.369Z,220
2017-10-03T09:44:19.077Z,190
2017-10-03T09:45:19.740Z,190
2017-10-03T09:46:19.762Z,185
2017-10-03T09:47:19.783Z,160
2017-10-03T09:49:19.829Z,160
2017-10-03T09:51:33.835Z,155
2017-10-03T09:52:34.493Z,160
2017-10-03T09:53:19.928Z,160
2017-10-03T09:54:19.633Z,155
2017-10-03T09:55:34.246Z,150
2017-10-03T09:56:19.993Z,155
2017-10-03T09:57:20.018Z,165
2017-10-03T09:58:19.723Z,170
2017-10-03T09:59:19.119Z,175
2017-10-03T10:00:19.768Z,170
2017-10-03T10:01:19.803Z,160
2017-10-03T10:02:19.819Z,150
2017-10-03T10:03:19.842Z,145
2017-10-03T10:04:34.784Z,155
2017-10-03T10:06:34.824Z,150
2017-10-03T10:07:19.968Z,150
2017-10-03T10:08:19.960Z,145
2017-10-03T10:09:19.985Z,140
2017-10-03T10:10:20.323Z,140
2017-10-03T10:11:20.354Z,115
2017-10-03T10:12:20.114Z,95
2017-10-03T10:13:20.402Z,80
2017-10-03T10:14:20.428Z,90
2017-10-03T10:15:20.127Z,100
2017-10-03T10:16:20.150Z,110
2017-10-03T10:17:20.174Z,110
2017-10-03T10:18:20.517Z,100
2017-10-03T10:19:20.219Z,95
2017-10-03T10:20:35.162Z,75
2017-10-03T10:21:20.587Z,75
2017-10-03T10:22:20.290Z,80
2017-10-03T10:23:20.632Z,70
2017-10-03T10:24:20.686Z,60
2017-10-03T10:25:35.273Z,50
2017-10-03T10:26:20.706Z,50
2017-10-03T10:27:20.730Z,55
2017-10-03T10:28:20.440Z,65
2017-10-03T10:29:20.491Z,70
2017-10-03T10:30:20.163Z,80
2017-10-03T10:31:20.823Z,90
2017-10-03T10:32:20.851Z,105
2017-10-03T10:33:20.557Z,115
2017-10-03T10:34:20.895Z,125
2017-10-03T10:35:20.593Z,140
2017-10-03T10:36:35.530Z,145
2017-10-03T10:37:35.558Z,150
2017-10-03T10:38:20.984Z,150
2017-10-03T10:39:35.644Z,145
2017-10-03T10:40:35.626Z,175
2017-10-03T10:41:35.647Z,140
2017-10-03T10:42:20.765Z,140
2017-10-03T10:43:21.101Z,130
2017-10-03T10:44:21.131Z,135
2017-10-03T10:45:20.834Z,165
2017-10-03T10:46:20.537Z,160
2017-10-03T10:47:20.561Z,175
2017-10-03T10:49:20.290Z,180
2017-10-03T10:50:20.949Z,160
2017-10-03T10:51:35.901Z,175
2017-10-03T10:52:35.903Z,175
2017-10-03T10:54:35.637Z,165
2017-10-03T10:56:35.681Z,155
2017-10-03T10:57:21.116Z,145
2017-10-03T10:58:21.134Z,130
2017-10-03T10:59:20.867Z,115
2017-10-03T11:00:21.183Z,110
2017-10-03T11:01:21.525Z,115
2017-10-03T11:02:21.548Z,120
2017-10-03T11:03:36.162Z,120
2017-10-03T11:04:21.600Z,120
2017-10-03T11:05:21.309Z,135
2017-10-03T11:07:35.945Z,160
2017-10-03T11:08:35.697Z,165
2017-10-03T11:09:35.992Z,165
2017-10-03T11:10:36.062Z,160
2017-10-03T11:12:35.743Z,175
2017-10-03T11:13:21.491Z,160
2017-10-03T11:14:21.829Z,150
2017-10-03T11:15:21.542Z,140
2017-10-03T11:16:21.559Z,130
2017-10-03T11:17:21.963Z,135
2017-10-03T11:18:21.609Z,150
2017-10-03T11:19:21.637Z,165
2017-10-03T11:20:21.346Z,145
2017-10-03T11:21:22.003Z,135
2017-10-03T11:22:22.022Z,165
2017-10-03T11:23:21.732Z,150
2017-10-03T11:24:21.436Z,150
2017-10-03T11:25:21.780Z,160
2017-10-03T11:26:36.712Z,180
2017-10-03T11:28:36.756Z,140
2017-10-03T11:29:21.560Z,120
2017-10-03T11:30:22.215Z,115
2017-10-03T11:31:22.241Z,110
2017-10-03T11:32:22.267Z,100
2017-10-03T11:33:22.289Z,95
2017-10-03T11:34:21.727Z,100
2017-10-03T11:35:22.013Z,105
2017-10-03T11:36:22.359Z,95
2017-10-03T11:37:22.379Z,85
2017-10-03T11:38:22.088Z,75
2017-10-03T11:39:37.018Z,75
2017-10-03T11:40:21.826Z,75
2017-10-03T11:41:36.751Z,80
2017-10-03T11:42:37.095Z,80
2017-10-03T11:43:36.796Z,85
2017-10-03T11:44:22.232Z,85
2017-10-03T11:45:22.260Z,95
2017-10-03T11:46:22.279Z,100
2017-10-03T11:47:22.675Z,95
2017-10-03T11:48:22.323Z,95
2017-10-03T11:49:22.028Z,90
2017-10-03T11:50:22.370Z,80
2017-10-03T11:51:22.398Z,70
2017-10-03T11:52:22.424Z,60
2017-10-03T11:53:22.754Z,60
2017-10-03T11:54:22.781Z,60
2017-10-03T11:55:37.404Z,60
2017-10-03T11:56:22.828Z,65
2017-10-03T11:57:22.542Z,70
2017-10-03T11:58:22.902Z,80
2017-10-03T11:59:22.901Z,85
2017-10-03T12:01:37.220Z,120
2017-10-03T12:02:22.647Z,135
2017-10-03T12:03:22.993Z,150
2017-10-03T12:04:23.025Z,150
2017-10-03T12:05:22.717Z,155
2017-10-03T12:06:22.747Z,160
2017-10-03T12:07:23.086Z,165
2017-10-03T12:08:23.115Z,170
2017-10-03T12:09:22.818Z,170
2017-10-03T12:10:22.835Z,170
2017-10-03T12:11:37.778Z,170
2017-10-03T12:12:22.883Z,170
2017-10-03T12:13:22.908Z,165
2017-10-03T12:14:37.842Z,155
2017-10-03T12:15:37.867Z,150
2017-10-03T12:16:22.980Z,150
2017-10-03T12:17:37.964Z,150
2017-10-03T12:18:23.353Z,150
2017-10-03T12:19:23.375Z,155
2017-10-03T12:20:23.394Z,175
2017-10-03T12:21:23.091Z,185
2017-10-03T12:22:23.136Z,190
2017-10-03T12:23:23.141Z,200
2017-10-03T12:24:23.167Z,205
2017-10-03T12:25:23.199Z,210
2017-10-03T12:27:52.736Z,170
2017-10-03T12:29:23.605Z,210
2017-10-03T12:30:23.311Z,220
2017-10-03T12:31:23.662Z,165
2017-10-03T12:32:23.673Z,215
2017-10-03T12:33:37.970Z,190
2017-10-03T12:34:23.724Z,180
2017-10-03T12:35:38.339Z,210
2017-10-03T12:36:23.137Z,215
2017-10-03T12:37:23.790Z,205
2017-10-03T12:38:23.828Z,205
2017-10-03T12:39:23.203Z,145
2017-10-03T12:40:23.871Z,140
2017-10-03T12:41:23.252Z,140
2017-10-03T12:42:38.558Z,140
2017-10-03T12:43:23.937Z,155
2017-10-03T12:44:23.678Z,190
2017-10-03T12:46:23.694Z,160
2017-10-03T12:47:23.718Z,145
2017-10-03T12:48:23.738Z,155
2017-10-03T12:49:24.108Z,180
2017-10-03T12:50:24.118Z,175
2017-10-03T12:51:23.815Z,105
2017-10-03T12:52:23.850Z,130
2017-10-03T12:53:23.859Z,115
2017-10-03T12:54:24.206Z,70
2017-10-03T12:55:23.907Z,55
2017-10-03T12:56:24.247Z,50
2017-10-03T12:57:24.276Z,55
2017-10-03T12:58:24.347Z,110
2017-10-03T12:59:24.000Z,65
2017-10-03T13:00:38.623Z,70
2017-10-03T13:01:24.053Z,75
2017-10-03T13:02:24.079Z,65
2017-10-03T13:03:24.101Z,55
2017-10-03T13:04:24.127Z,60
2017-10-03T13:05:24.152Z,70
2017-10-03T13:06:39.128Z,75
2017-10-03T13:07:24.512Z,75
2017-10-03T13:08:24.536Z,75
2017-10-03T13:09:24.563Z,120
2017-10-03T13:10:24.582Z,60
2017-10-03T13:11:24.612Z,50
2017-10-03T13:12:24.636Z,40
2017-10-03T13:13:24.349Z,35
2017-10-03T13:14:39.269Z,35
2017-10-03T13:15:24.712Z,35
2017-10-03T13:16:24.733Z,40
2017-10-03T13:17:24.111Z,45
2017-10-03T13:18:39.046Z,60
2017-10-03T13:19:24.477Z,80
2017-10-03T13:21:24.205Z,95
2017-10-03T13:22:24.547Z,110
2017-10-03T13:23:24.893Z,115
2017-10-03T13:25:24.937Z,140
2017-10-03T13:26:24.960Z,145
2017-10-03T13:27:24.658Z,115
2017-10-03T13:28:25.010Z,120
2017-10-03T13:29:24.708Z,145
2017-10-03T13:30:39.642Z,155
2017-10-03T13:31:24.436Z,175
2017-10-03T13:32:39.370Z,120
2017-10-03T13:33:25.123Z,125
2017-10-03T13:34:25.144Z,160
2017-10-03T13:35:25.187Z,155
2017-10-03T13:36:25.191Z,150
2017-10-03T13:37:24.575Z,145
2017-10-03T13:38:39.509Z,140
2017-10-03T13:39:25.260Z,140
2017-10-03T13:40:25.287Z,135
2017-10-03T13:41:25.300Z,135
2017-10-03T13:42:25.331Z,130
2017-10-03T13:43:25.387Z,130
2017-10-03T13:44:25.071Z,80
2017-10-03T13:45:25.398Z,115
2017-10-03T13:46:40.023Z,75
2017-10-03T13:47:25.446Z,125
2017-10-03T13:48:25.145Z,70
2017-10-03T13:49:25.501Z,125
2017-10-03T13:50:40.114Z,75
2017-10-03T13:51:40.125Z,70
2017-10-03T13:52:25.244Z,70
2017-10-03T13:53:25.582Z,65
2017-10-03T13:54:25.605Z,65
2017-10-03T13:55:25.312Z,65
2017-10-03T13:56:25.397Z,70
2017-10-03T13:57:25.038Z,120
2017-10-03T13:58:25.698Z,100
2017-10-03T13:59:40.325Z,125
2017-10-03T14:00:25.429Z,120
2017-10-03T14:01:25.130Z,120
2017-10-03T14:02:40.382Z,120
2017-10-03T14:03:25.823Z,120
2017-10-03T14:04:25.836Z,120
2017-10-03T14:05:25.853Z,120
2017-10-03T14:06:40.183Z,125
2017-10-03T14:07:25.901Z,120
2017-10-03T14:08:25.927Z,120
2017-10-03T14:09:25.956Z,120
2017-10-03T14:10:40.258Z,120
2017-10-03T14:11:25.677Z,120
2017-10-03T14:12:26.072Z,120
2017-10-03T14:13:25.726Z,120
2017-10-03T14:14:26.066Z,120
2017-10-03T14:15:25.770Z,120
2017-10-03T14:16:26.118Z,115
2017-10-03T14:17:40.438Z,115
2017-10-03T14:19:26.179Z,115
2017-10-03T14:20:40.797Z,65
2017-10-03T14:21:40.819Z,65
2017-10-03T14:22:25.932Z,65
2017-10-03T14:23:40.866Z,65
2017-10-03T14:24:26.349Z,65
2017-10-03T14:25:26.320Z,65
2017-10-03T14:26:26.074Z,65
2017-10-03T14:27:26.375Z,115
2017-10-03T14:29:26.100Z,115
2017-10-03T14:30:26.113Z,115
2017-10-03T14:31:26.146Z,115
2017-10-03T14:32:26.157Z,70
2017-10-03T14:33:26.498Z,65
2017-10-03T14:34:41.122Z,65
2017-10-03T14:35:26.545Z,60
2017-10-03T14:36:40.846Z,65
2017-10-03T14:37:26.274Z,65
2017-10-03T14:38:41.209Z,65
2017-10-03T14:39:26.324Z,70
2017-10-03T14:40:26.026Z,70
2017-10-03T14:41:26.373Z,75
2017-10-03T14:42:26.391Z,75
2017-10-03T14:43:26.419Z,75
2017-10-03T14:44:26.762Z,115
2017-10-03T14:45:26.780Z,80
2017-10-03T14:46:26.167Z,80
2017-10-03T14:47:26.846Z,85
2017-10-03T14:48:26.842Z,90
2017-10-03T14:49:41.466Z,75
2017-10-03T14:50:26.890Z,80
2017-10-03T14:51:26.283Z,110
2017-10-03T14:52:26.620Z,110
2017-10-03T14:53:41.603Z,105
2017-10-03T14:55:27.007Z,80
2017-10-03T14:57:26.738Z,105
2017-10-03T14:58:27.075Z,110
2017-10-03T15:00:41.713Z,65
2017-10-03T15:01:27.148Z,80
2017-10-03T15:02:26.851Z,100
2017-10-03T15:03:27.198Z,100
2017-10-03T15:05:41.851Z,80
2017-10-03T15:06:26.627Z,100
2017-10-03T15:07:41.239Z,100
2017-10-03T15:08:26.993Z,100
2017-10-03T15:09:41.924Z,65
2017-10-03T15:11:27.082Z,85
2017-10-03T15:12:27.402Z,80
2017-10-03T15:13:27.107Z,95
2017-10-03T15:14:42.033Z,95
2017-10-03T15:15:27.469Z,95
2017-10-03T15:16:42.092Z,95
2017-10-03T15:17:27.518Z,95
2017-10-03T15:18:27.555Z,95
2017-10-03T15:19:27.241Z,95
2017-10-03T15:20:27.267Z,95
2017-10-03T15:21:42.206Z,90